createdAt,value
2018-08-23T00:00:44.334Z,17.00
2018-08-23T00:03:18.467Z,17.00
2018-08-23T00:05:54.279Z,17.00
2018-08-23T00:08:23.685Z,16.90
2018-08-23T00:10:53.170Z,16.80
2018-08-23T00:13:22.510Z,16.90
2018-08-23T00:15:51.574Z,16.90
2018-08-23T00:18:20.420Z,16.90
2018-08-23T00:20:49.242Z,16.90
2018-08-23T00:23:17.988Z,17.00
2018-08-23T00:25:46.779Z,17.00
2018-08-23T00:28:15.546Z,17.10
2018-08-23T00:30:46.174Z,17.10
2018-08-23T00:33:15.013Z,17.10
2018-08-23T00:35:43.786Z,17.10
2018-08-23T00:38:12.566Z,17.20
2018-08-23T00:40:43.574Z,17.10
2018-08-23T00:43:13.661Z,17.10
2018-08-23T00:45:42.514Z,17.10
2018-08-23T00:48:11.340Z,17.10
2018-08-23T00:50:58.238Z,17.10
2018-08-23T00:53:27.835Z,17.20
2018-08-23T00:56:14.827Z,17.10
2018-08-23T00:59:01.867Z,17.10
2018-08-23T01:01:31.284Z,17.10
2018-08-23T01:04:00.104Z,17.00
2018-08-23T01:06:42.994Z,17.10
2018-08-23T01:09:12.785Z,17.00
2018-08-23T01:11:41.573Z,17.00
2018-08-23T01:14:10.438Z,17.00
2018-08-23T01:16:39.245Z,17.00
2018-08-23T01:19:13.218Z,17.00
2018-08-23T01:21:47.415Z,17.00
2018-08-23T01:24:16.208Z,17.00
2018-08-23T01:26:44.983Z,17.00
2018-08-23T01:29:25.962Z,17.00
2018-08-23T01:31:56.014Z,17.00
2018-08-23T01:34:24.877Z,17.00
2018-08-23T01:36:53.674Z,17.00
2018-08-23T01:39:22.502Z,17.00
2018-08-23T01:41:51.258Z,16.90
2018-08-23T01:44:21.070Z,16.90
2018-08-23T01:46:49.914Z,16.90
2018-08-23T01:49:19.002Z,16.90
2018-08-23T01:51:47.778Z,16.80
2018-08-23T01:54:17.030Z,16.80
2018-08-23T01:56:45.810Z,16.80
2018-08-23T01:59:14.594Z,16.70
2018-08-23T02:01:43.410Z,16.70
2018-08-23T02:04:12.179Z,16.70
2018-08-23T02:06:40.955Z,16.70
2018-08-23T02:09:09.755Z,16.70
2018-08-23T02:11:38.530Z,16.60
2018-08-23T02:14:07.318Z,16.60
2018-08-23T02:16:47.371Z,16.60
2018-08-23T02:19:16.182Z,16.60
2018-08-23T02:21:44.954Z,16.60
2018-08-23T02:24:14.900Z,16.50
2018-08-23T02:26:43.663Z,16.50
2018-08-23T02:29:12.582Z,16.40
2018-08-23T02:31:41.342Z,16.40
2018-08-23T02:34:10.148Z,16.40
2018-08-23T02:36:38.914Z,16.40
2018-08-23T02:39:10.368Z,16.40
2018-08-23T02:41:41.881Z,16.40
2018-08-23T02:44:10.898Z,16.50
2018-08-23T02:46:39.674Z,16.50
2018-08-23T02:49:08.512Z,16.50
2018-08-23T02:51:42.459Z,16.50
2018-08-23T02:54:12.259Z,16.40
2018-08-23T02:56:44.990Z,16.40
2018-08-23T02:59:13.772Z,16.50
2018-08-23T03:01:46.434Z,16.40
2018-08-23T03:04:16.490Z,16.50
2018-08-23T03:06:51.451Z,16.40
2018-08-23T03:09:23.298Z,16.40
2018-08-23T03:11:53.339Z,16.40
2018-08-23T03:14:23.015Z,16.40
2018-08-23T03:17:00.694Z,16.30
2018-08-23T03:19:29.505Z,16.30
2018-08-23T03:22:01.638Z,16.20
2018-08-23T03:24:30.380Z,16.10
2018-08-23T03:26:59.232Z,16.10
2018-08-23T03:29:28.030Z,16.00
2018-08-23T03:31:56.802Z,16.00
2018-08-23T03:34:25.595Z,15.90
2018-08-23T03:36:54.363Z,15.90
2018-08-23T03:39:23.154Z,15.90
2018-08-23T03:41:51.919Z,15.80
2018-08-23T03:44:26.306Z,15.80
2018-08-23T03:46:56.042Z,15.80
2018-08-23T03:49:31.126Z,15.80
2018-08-23T03:52:00.186Z,15.70
2018-08-23T03:54:29.054Z,15.70
2018-08-23T03:57:13.306Z,15.70
2018-08-23T03:59:47.275Z,15.70
2018-08-23T04:02:17.191Z,15.70
2018-08-23T04:04:48.213Z,15.70
2018-08-23T04:07:17.511Z,15.70
2018-08-23T04:09:46.511Z,15.70
2018-08-23T04:12:15.343Z,15.70
2018-08-23T04:14:44.090Z,15.80
2018-08-23T04:17:12.856Z,15.70
2018-08-23T04:19:44.065Z,15.80
2018-08-23T04:22:12.867Z,15.80
2018-08-23T04:24:46.854Z,15.80
2018-08-23T04:27:15.654Z,15.90
2018-08-23T04:29:47.050Z,16.00
2018-08-23T04:32:26.394Z,16.00
2018-08-23T04:34:55.586Z,16.10
2018-08-23T04:37:24.560Z,16.20
2018-08-23T04:39:58.900Z,16.30
2018-08-23T04:42:27.930Z,16.40
2018-08-23T04:44:56.874Z,16.50
2018-08-23T04:47:25.654Z,16.60
2018-08-23T04:49:54.422Z,16.60
2018-08-23T04:52:23.486Z,16.70
2018-08-23T04:54:52.590Z,16.80
2018-08-23T04:57:21.698Z,16.90
2018-08-23T04:59:50.783Z,17.00
2018-08-23T05:02:19.974Z,17.00
2018-08-23T05:04:49.067Z,17.10
2018-08-23T05:07:17.850Z,17.20
2018-08-23T05:09:46.630Z,17.30
2018-08-23T05:12:15.378Z,17.40
2018-08-23T05:14:44.151Z,17.50
2018-08-23T05:17:13.337Z,17.50
2018-08-23T05:19:42.136Z,17.60
2018-08-23T05:22:10.922Z,17.60
2018-08-23T05:24:39.778Z,17.70
2018-08-23T05:27:08.858Z,17.80
2018-08-23T05:29:37.976Z,17.90
2018-08-23T05:32:07.154Z,18.00
2018-08-23T05:34:36.159Z,18.10
2018-08-23T05:37:05.655Z,18.20
2018-08-23T05:39:46.469Z,18.20
2018-08-23T05:42:15.857Z,18.30
2018-08-23T05:44:44.630Z,18.40
2018-08-23T05:47:13.422Z,18.40
2018-08-23T05:49:42.238Z,18.50
2018-08-23T05:52:11.574Z,18.50
2018-08-23T05:54:40.354Z,18.60
2018-08-23T05:57:09.194Z,18.70
2018-08-23T05:59:37.966Z,18.80
2018-08-23T06:02:06.884Z,18.80
2018-08-23T06:04:42.223Z,18.90
2018-08-23T06:07:11.035Z,19.00
2018-08-23T06:09:41.938Z,19.00
2018-08-23T06:12:10.735Z,19.10
2018-08-23T06:14:39.506Z,19.20
2018-08-23T06:17:08.408Z,19.30
2018-08-23T06:19:37.294Z,19.40
2018-08-23T06:22:06.119Z,19.50
2018-08-23T06:24:34.897Z,19.60
2018-08-23T06:27:03.967Z,19.60
2018-08-23T06:29:34.771Z,19.60
2018-08-23T06:32:10.562Z,19.80
2018-08-23T06:34:45.622Z,19.80
2018-08-23T06:37:15.062Z,19.80
2018-08-23T06:39:44.296Z,19.90
2018-08-23T06:42:13.073Z,20.00
2018-08-23T06:44:47.294Z,20.10
2018-08-23T06:47:19.359Z,20.20
2018-08-23T06:49:49.373Z,20.20
2018-08-23T06:59:15.482Z,20.30
2018-08-23T07:01:48.081Z,20.60
2018-08-23T07:04:16.898Z,20.60
2018-08-23T07:06:45.704Z,20.60
2018-08-23T07:09:15.814Z,20.80
2018-08-23T07:11:45.043Z,20.80
2018-08-23T07:14:16.001Z,20.90
2018-08-23T07:16:47.064Z,20.90
2018-08-23T07:19:27.344Z,21.00
2018-08-23T07:21:56.822Z,21.20
2018-08-23T07:24:45.931Z,21.20
2018-08-23T07:27:15.990Z,21.30
2018-08-23T07:29:49.560Z,21.20
2018-08-23T07:32:20.691Z,21.30
2018-08-23T07:34:59.315Z,21.50
2018-08-23T07:37:28.276Z,21.50
2018-08-23T07:40:02.170Z,21.60
2018-08-23T07:42:32.103Z,21.70
2018-08-23T07:45:01.358Z,21.90
2018-08-23T07:47:30.770Z,21.90
2018-08-23T07:50:00.724Z,22.00
2018-08-23T07:52:30.965Z,22.00
2018-08-23T07:54:59.882Z,22.00
2018-08-23T07:57:31.691Z,21.90
2018-08-23T08:00:01.731Z,21.90
2018-08-23T08:02:30.787Z,21.90
2018-08-23T08:04:59.972Z,21.90
2018-08-23T08:07:30.020Z,22.10
2018-08-23T08:10:01.256Z,22.10
2018-08-23T08:12:39.210Z,22.00
2018-08-23T08:15:10.836Z,22.10
2018-08-23T08:17:39.495Z,22.30
2018-08-23T08:20:10.020Z,22.50
2018-08-23T08:22:38.926Z,22.70
2018-08-23T08:25:13.066Z,22.70
2018-08-23T08:27:41.886Z,23.00
2018-08-23T08:30:12.930Z,22.80
2018-08-23T08:32:41.742Z,23.10
2018-08-23T08:35:14.574Z,23.00
2018-08-23T08:37:44.235Z,23.10
2018-08-23T08:40:19.160Z,23.40
2018-08-23T08:42:47.978Z,23.10
2018-08-23T08:45:16.754Z,23.40
2018-08-23T08:47:46.552Z,23.30
2018-08-23T08:50:15.646Z,23.50
2018-08-23T08:52:44.438Z,23.20
2018-08-23T08:55:14.676Z,23.50
2018-08-23T08:57:44.789Z,23.70
2018-08-23T09:00:13.634Z,24.10
2018-08-23T09:02:42.494Z,23.90
2018-08-23T09:05:11.744Z,23.80
2018-08-23T09:07:42.471Z,24.00
2018-08-23T09:10:11.327Z,24.10
2018-08-23T09:12:45.286Z,24.00
2018-08-23T09:15:14.059Z,24.10
2018-08-23T09:17:46.760Z,24.30
2018-08-23T09:20:16.859Z,24.60
2018-08-23T09:22:50.826Z,24.30
2018-08-23T09:26:32.391Z,24.10
2018-08-23T09:29:01.303Z,24.20
2018-08-23T09:31:30.065Z,24.40
2018-08-23T09:33:58.832Z,24.20
2018-08-23T09:36:27.597Z,24.10
2018-08-23T09:38:56.454Z,24.40
2018-08-23T09:41:25.226Z,24.60
2018-08-23T09:43:54.002Z,24.20
2018-08-23T09:46:22.771Z,24.30
2018-08-23T09:48:51.541Z,24.50
2018-08-23T09:51:25.498Z,24.70
2018-08-23T09:53:54.269Z,25.20
2018-08-23T09:56:30.206Z,25.20
2018-08-23T09:58:59.129Z,24.70
2018-08-23T10:01:33.197Z,24.80
2018-08-23T10:04:07.115Z,25.20
2018-08-23T10:06:41.212Z,25.60
2018-08-23T10:09:16.540Z,25.60
2018-08-23T10:11:51.021Z,25.70
2018-08-23T10:14:25.033Z,25.90
2018-08-23T10:16:59.071Z,25.60
2018-08-23T10:19:33.210Z,25.50
2018-08-23T10:22:07.226Z,25.50
2018-08-23T10:24:36.063Z,25.50
2018-08-23T10:27:05.166Z,25.40
2018-08-23T10:29:33.960Z,25.70
2018-08-23T10:32:03.064Z,25.70
2018-08-23T10:34:32.110Z,25.60
2018-08-23T10:37:00.898Z,25.40
2018-08-23T10:39:29.690Z,25.70
2018-08-23T10:41:58.449Z,25.70
2018-08-23T10:44:27.215Z,25.90
2018-08-23T10:46:56.524Z,26.10
2018-08-23T10:49:26.018Z,26.20
2018-08-23T10:51:54.796Z,26.30
2018-08-23T10:54:23.575Z,26.00
2018-08-23T10:56:52.378Z,26.10
2018-08-23T10:59:21.155Z,25.90
2018-08-23T11:01:49.960Z,26.10
2018-08-23T11:04:18.752Z,26.60
2018-08-23T11:06:52.746Z,27.10
2018-08-23T11:09:26.860Z,27.20
2018-08-23T11:11:55.634Z,27.00
2018-08-23T11:14:31.882Z,26.40
2018-08-23T11:17:06.006Z,26.40
2018-08-23T11:19:39.906Z,26.50
2018-08-23T11:22:08.811Z,27.10
2018-08-23T11:24:37.586Z,27.90
2018-08-23T11:27:10.642Z,27.80
2018-08-23T11:29:39.595Z,28.20
2018-08-23T11:32:08.395Z,28.60
2018-08-23T11:34:37.322Z,28.40
2018-08-23T11:37:06.251Z,28.20
2018-08-23T11:39:35.156Z,28.40
2018-08-23T11:42:04.031Z,28.80
2018-08-23T11:44:32.799Z,28.40
2018-08-23T11:47:01.562Z,28.40
2018-08-23T11:49:30.342Z,28.70
2018-08-23T11:51:59.205Z,28.10
2018-08-23T11:54:27.968Z,28.40
2018-08-23T11:56:56.746Z,29.00
2018-08-23T11:59:25.543Z,29.40
2018-08-23T12:01:54.340Z,29.20
2018-08-23T12:04:23.998Z,29.30
2018-08-23T12:06:56.590Z,30.10
2018-08-23T12:09:30.768Z,29.50
2018-08-23T12:12:00.035Z,28.90
2018-08-23T12:14:28.803Z,29.20
2018-08-23T12:16:57.555Z,29.30
2018-08-23T12:19:26.333Z,29.40
2018-08-23T12:21:55.116Z,29.10
2018-08-23T12:24:23.966Z,29.20
2018-08-23T12:26:52.736Z,29.10
2018-08-23T12:29:21.531Z,29.50
2018-08-23T12:31:50.491Z,29.10
2018-08-23T12:34:30.286Z,28.60
2018-08-23T12:37:04.233Z,29.80
2018-08-23T12:39:38.358Z,31.50
2018-08-23T12:42:12.405Z,31.70
2018-08-23T12:44:46.312Z,32.20
2018-08-23T12:47:15.096Z,30.90
2018-08-23T12:49:49.094Z,30.70
2018-08-23T12:52:18.687Z,30.10
2018-08-23T12:54:47.521Z,30.10
2018-08-23T12:57:16.302Z,30.20
2018-08-23T12:59:45.103Z,29.90
2018-08-23T13:02:13.942Z,29.90
2018-08-23T13:04:42.629Z,29.50
2018-08-23T13:07:11.428Z,29.40
2018-08-23T13:09:40.196Z,29.30
2018-08-23T13:12:08.962Z,29.10
2018-08-23T13:14:37.742Z,28.60
2018-08-23T13:17:06.801Z,28.40
2018-08-23T13:19:35.626Z,28.70
2018-08-23T13:22:04.517Z,29.30
2018-08-23T13:24:33.758Z,29.30
2018-08-23T13:27:02.548Z,29.30
2018-08-23T13:29:31.410Z,28.90
2018-08-23T13:32:00.222Z,28.70
2018-08-23T13:34:29.084Z,28.60
2018-08-23T13:36:57.913Z,29.70
2018-08-23T13:39:26.738Z,29.20
2018-08-23T13:41:55.558Z,29.20
2018-08-23T13:44:24.342Z,29.30
2018-08-23T13:46:53.098Z,29.00
2018-08-23T13:49:21.855Z,29.10
2018-08-23T13:51:50.705Z,29.10
2018-08-23T13:54:19.474Z,29.30
2018-08-23T13:56:48.346Z,29.00
2018-08-23T13:59:17.143Z,29.00
2018-08-23T14:01:45.915Z,29.20
2018-08-23T14:04:14.695Z,28.80
2018-08-23T14:06:43.770Z,29.60
2018-08-23T14:09:12.854Z,29.70
2018-08-23T14:11:41.955Z,29.80
2018-08-23T14:14:11.871Z,29.50
2018-08-23T14:16:41.342Z,29.40
2018-08-23T14:19:10.713Z,29.80
2018-08-23T14:21:39.851Z,29.70
2018-08-23T14:24:09.489Z,29.70
2018-08-23T14:26:38.834Z,29.20
2018-08-23T14:29:07.600Z,28.40
2018-08-23T14:31:37.210Z,28.30
2018-08-23T14:34:06.681Z,28.70
2018-08-23T14:36:36.611Z,28.40
2018-08-23T14:39:09.334Z,28.60
2018-08-23T14:41:39.670Z,28.70
2018-08-23T14:44:09.600Z,29.10
2018-08-23T14:46:44.475Z,29.10
2018-08-23T14:49:18.739Z,29.20
2018-08-23T14:51:48.160Z,29.00
2018-08-23T14:54:22.922Z,28.50
2018-08-23T14:56:57.062Z,29.30
2018-08-23T14:59:26.146Z,29.60
2018-08-23T15:01:55.778Z,29.70
2018-08-23T15:04:24.563Z,29.40
2018-08-23T15:06:54.170Z,29.20
2018-08-23T15:09:27.808Z,29.60
2018-08-23T15:11:58.267Z,28.90
2018-08-23T15:14:28.203Z,28.30
2018-08-23T15:16:58.138Z,28.60
2018-08-23T15:19:27.494Z,28.90
2018-08-23T15:21:56.898Z,28.40
2018-08-23T15:24:26.542Z,28.30
2018-08-23T15:26:55.880Z,29.20
2018-08-23T15:29:25.246Z,27.70
2018-08-23T15:31:54.768Z,27.50
2018-08-23T15:34:24.067Z,27.40
2018-08-23T15:36:52.826Z,27.10
2018-08-23T15:39:21.978Z,26.80
2018-08-23T15:41:51.415Z,26.60
2018-08-23T15:44:21.090Z,27.30
2018-08-23T15:46:50.358Z,26.50
2018-08-23T15:49:19.730Z,26.80
2018-08-23T15:51:49.642Z,26.40
2018-08-23T15:54:19.788Z,26.40
2018-08-23T15:56:49.154Z,26.30
2018-08-23T15:59:18.492Z,26.70
2018-08-23T16:01:47.580Z,26.60
2018-08-23T16:04:16.988Z,26.50
2018-08-23T16:06:46.022Z,26.70
2018-08-23T16:09:15.142Z,26.60
2018-08-23T16:11:44.554Z,26.20
2018-08-23T16:14:14.454Z,26.10
2018-08-23T16:16:49.229Z,26.40
2018-08-23T16:19:23.637Z,25.70
2018-08-23T16:21:59.019Z,25.40
2018-08-23T16:24:28.789Z,25.60
2018-08-23T16:27:03.055Z,25.40
2018-08-23T16:29:32.803Z,25.20
2018-08-23T16:32:02.551Z,24.70
2018-08-23T16:34:31.824Z,24.60
2018-08-23T16:37:01.433Z,24.50
2018-08-23T16:39:30.787Z,24.50
2018-08-23T16:42:00.441Z,24.60
2018-08-23T16:44:30.327Z,24.50
2018-08-23T16:46:59.414Z,24.40
2018-08-23T16:49:28.216Z,24.20
2018-08-23T16:51:58.035Z,23.90
2018-08-23T16:54:27.239Z,24.00
2018-08-23T16:56:56.823Z,23.80
2018-08-23T16:59:26.182Z,23.80
2018-08-23T17:01:55.653Z,23.70
2018-08-23T17:04:30.264Z,23.50
2018-08-23T17:06:59.801Z,23.20
2018-08-23T17:09:29.158Z,23.10
2018-08-23T17:11:58.587Z,22.90
2018-08-23T17:14:28.189Z,22.70
2018-08-23T17:17:02.627Z,22.50
2018-08-23T17:19:32.239Z,22.30
2018-08-23T17:22:01.665Z,22.10
2018-08-23T17:24:30.792Z,22.00
2018-08-23T17:27:00.062Z,24.00
2018-08-23T17:29:29.971Z,21.80
2018-08-23T17:31:59.328Z,21.70
2018-08-23T17:34:28.442Z,21.60
2018-08-23T17:36:57.823Z,21.40
2018-08-23T17:39:27.634Z,21.30
2018-08-23T17:41:57.282Z,21.20
2018-08-23T17:44:26.337Z,21.10
2018-08-23T17:46:55.694Z,21.00
2018-08-23T17:49:24.488Z,20.90
2018-08-23T17:51:54.410Z,20.80
2018-08-23T17:54:24.434Z,20.80
2018-08-23T17:56:53.210Z,20.70
2018-08-23T17:59:22.323Z,20.70
2018-08-23T18:01:51.402Z,20.60
2018-08-23T18:04:21.027Z,20.50
2018-08-23T18:06:49.811Z,20.40
2018-08-23T18:09:19.423Z,20.30
2018-08-23T18:11:48.562Z,20.30
2018-08-23T18:14:17.619Z,20.10
2018-08-23T18:16:51.738Z,20.00
2018-08-23T18:19:20.538Z,20.00
2018-08-23T18:21:49.322Z,19.90
2018-08-23T18:24:18.666Z,19.80
2018-08-23T18:26:47.752Z,19.70
2018-08-23T18:29:17.462Z,19.60
2018-08-23T18:31:46.273Z,19.60
2018-08-23T18:34:15.699Z,19.50
2018-08-23T18:36:44.755Z,19.40
2018-08-23T18:39:14.089Z,19.40
2018-08-23T18:41:43.494Z,19.30
2018-08-23T18:44:12.838Z,19.30
2018-08-23T18:46:42.236Z,19.20
2018-08-23T18:49:11.055Z,19.10
2018-08-23T18:51:39.855Z,19.10
2018-08-23T18:54:08.665Z,19.10
2018-08-23T18:56:38.086Z,19.00
2018-08-23T18:59:07.514Z,18.90
2018-08-23T19:01:37.166Z,18.90
2018-08-23T19:04:06.874Z,18.90
2018-08-23T19:06:37.798Z,18.80
2018-08-23T19:09:11.367Z,18.80
2018-08-23T19:11:41.051Z,18.80
2018-08-23T19:14:10.878Z,18.70
2018-08-23T19:16:45.471Z,18.70
2018-08-23T19:19:15.183Z,18.60
2018-08-23T19:21:44.244Z,18.60
2018-08-23T19:24:13.557Z,18.50
2018-08-23T19:26:42.875Z,18.50
2018-08-23T19:29:12.368Z,18.50
2018-08-23T19:31:41.486Z,18.50
2018-08-23T19:34:11.046Z,18.50
2018-08-23T19:36:40.438Z,18.40
2018-08-23T19:39:11.642Z,18.40
2018-08-23T19:41:41.115Z,18.40
2018-08-23T19:44:10.259Z,18.30
2018-08-23T19:46:44.423Z,18.40
2018-08-23T19:49:19.256Z,18.30
2018-08-23T19:51:48.655Z,18.30
2018-08-23T19:54:18.511Z,18.30
2018-08-23T19:56:48.439Z,18.30
2018-08-23T19:59:17.886Z,18.30
2018-08-23T20:01:47.595Z,18.30
2018-08-23T20:04:17.342Z,18.30
2018-08-23T20:06:46.603Z,18.30
2018-08-23T20:09:16.277Z,18.20
2018-08-23T20:11:45.396Z,18.20
2018-08-23T20:14:14.467Z,18.20
2018-08-23T20:16:44.382Z,18.10
2018-08-23T20:19:13.495Z,18.20
2018-08-23T20:21:42.906Z,18.20
2018-08-23T20:24:12.106Z,18.20
2018-08-23T20:26:41.224Z,18.20
2018-08-23T20:29:11.009Z,18.20
2018-08-23T20:31:40.348Z,18.10
2018-08-23T20:34:09.684Z,18.10
2018-08-23T20:36:39.511Z,18.10
2018-08-23T20:39:12.863Z,18.20
2018-08-23T20:41:43.230Z,18.10
2018-08-23T20:44:12.883Z,18.10
2018-08-23T20:46:42.183Z,18.10
2018-08-23T20:49:11.927Z,18.10
2018-08-23T20:51:41.647Z,18.10
2018-08-23T20:54:11.123Z,18.10
2018-08-23T20:56:40.462Z,18.10
2018-08-23T20:59:10.322Z,18.10
2018-08-23T21:01:39.399Z,18.10
2018-08-23T21:04:08.970Z,18.20
2018-08-23T21:06:38.678Z,18.20
2018-08-23T21:09:10.314Z,18.10
2018-08-23T21:11:39.695Z,18.10
2018-08-23T21:14:09.876Z,18.10
2018-08-23T21:16:39.664Z,18.10
2018-08-23T21:19:09.554Z,18.10
2018-08-23T21:21:38.888Z,18.10
2018-08-23T21:24:08.705Z,18.10
2018-08-23T21:26:38.806Z,18.10
2018-08-23T21:29:08.782Z,18.10
2018-08-23T21:31:38.382Z,18.10
2018-08-23T21:34:08.253Z,18.10
2018-08-23T21:36:37.695Z,18.10
2018-08-23T21:39:09.726Z,18.10
2018-08-23T21:41:38.888Z,18.10
2018-08-23T21:44:09.231Z,18.10
2018-08-23T21:46:39.038Z,18.10
2018-08-23T21:49:09.346Z,18.10
2018-08-23T21:51:39.279Z,18.10
2018-08-23T21:54:09.234Z,18.10
2018-08-23T21:56:39.191Z,18.10
2018-08-23T21:59:08.608Z,18.10
2018-08-23T22:01:37.450Z,18.00
2018-08-23T22:04:06.849Z,18.10
2018-08-23T22:06:36.545Z,18.10
2018-08-23T22:09:08.429Z,18.00
2018-08-23T22:11:38.077Z,18.00
2018-08-23T22:14:08.220Z,18.10
2018-08-23T22:16:37.347Z,18.00
2018-08-23T22:19:06.800Z,18.10
2018-08-23T22:21:37.070Z,18.10
2018-08-23T22:24:07.024Z,18.00
2018-08-23T22:26:37.137Z,18.00
2018-08-23T22:29:06.366Z,18.00
2018-08-23T22:31:35.638Z,18.00
2018-08-23T22:34:04.778Z,18.00
2018-08-23T22:36:33.995Z,18.00
2018-08-23T22:39:03.190Z,18.00
2018-08-23T22:41:32.642Z,18.00
2018-08-23T22:44:02.887Z,18.00
2018-08-23T22:46:31.132Z,18.00
2018-08-23T22:49:00.734Z,18.00
2018-08-23T22:51:29.782Z,18.00
2018-08-23T22:53:58.870Z,18.00
2018-08-23T22:56:27.660Z,18.00
2018-08-23T22:58:56.758Z,18.00
2018-08-23T23:01:25.522Z,18.00
2018-08-23T23:03:59.854Z,18.00
2018-08-23T23:06:28.904Z,18.00
2018-08-23T23:08:57.954Z,18.00
2018-08-23T23:11:26.770Z,18.10
2018-08-23T23:13:55.990Z,18.00
2018-08-23T23:16:25.411Z,18.00
2018-08-23T23:18:54.150Z,18.00
2018-08-23T23:21:22.926Z,18.00
2018-08-23T23:23:52.041Z,18.00
2018-08-23T23:26:21.106Z,17.90
2018-08-23T23:28:50.520Z,17.90
2018-08-23T23:31:19.658Z,17.90
2018-08-23T23:33:48.714Z,18.00
2018-08-23T23:36:17.836Z,18.00
2018-08-23T23:38:47.036Z,18.00
2018-08-23T23:41:16.062Z,18.00
2018-08-23T23:43:44.872Z,18.00
2018-08-23T23:46:13.638Z,18.00
2018-08-23T23:48:43.290Z,18.00
2018-08-23T23:51:12.806Z,18.00
2018-08-23T23:53:41.854Z,18.10
2018-08-23T23:56:11.204Z,18.00
2018-08-23T23:58:40.246Z,18.00
